sensor_id;sensor_type;location;lat;lon;timestamp;P1;durP1;ratioP1;P2;durP2;ratioP2
62687;SDS011;48752;51.056;17.056;2023-10-09T00:00:34;8.68;;;4.00;;
62687;SDS011;48752;51.056;17.056;2023-10-09T00:03:03;8.90;;;4.30;;
62687;SDS011;48752;51.056;17.056;2023-10-09T00:05:30;9.80;;;4.70;;
62687;SDS011;48752;51.056;17.056;2023-10-09T00:08:17;9.85;;;4.35;;
62687;SDS011;48752;51.056;17.056;2023-10-09T00:10:57;9.43;;;4.15;;
62687;SDS011;48752;51.056;17.056;2023-10-09T00:13:47;11.65;;;3.92;;
62687;SDS011;48752;51.056;17.056;2023-10-09T00:16:22;8.15;;;4.47;;
62687;SDS011;48752;51.056;17.056;2023-10-09T00:19:03;8.23;;;4.07;;
62687;SDS011;48752;51.056;17.056;2023-10-09T00:21:48;11.70;;;3.97;;
62687;SDS011;48752;51.056;17.056;2023-10-09T00:24:36;9.45;;;3.95;;
62687;SDS011;48752;51.056;17.056;2023-10-09T00:27:10;8.05;;;3.95;;
62687;SDS011;48752;51.056;17.056;2023-10-09T00:29:44;6.75;;;3.88;;
62687;SDS011;48752;51.056;17.056;2023-10-09T00:32:15;8.98;;;3.60;;
62687;SDS011;48752;51.056;17.056;2023-10-09T00:34:42;10.85;;;4.03;;
62687;SDS011;48752;51.056;17.056;2023-10-09T00:37:24;6.78;;;3.80;;
62687;SDS011;48752;51.056;17.056;2023-10-09T00:39:54;7.57;;;3.60;;
62687;SDS011;48752;51.056;17.056;2023-10-09T00:42:53;8.02;;;3.90;;
62687;SDS011;48752;51.056;17.056;2023-10-09T00:45:28;7.75;;;3.90;;
62687;SDS011;48752;51.056;17.056;2023-10-09T00:47:57;6.15;;;3.50;;
62687;SDS011;48752;51.056;17.056;2023-10-09T00:50:24;6.80;;;3.45;;
62687;SDS011;48752;51.056;17.056;2023-10-09T00:52:53;4.88;;;3.22;;
62687;SDS011;48752;51.056;17.056;2023-10-09T00:55:27;8.55;;;3.60;;
62687;SDS011;48752;51.056;17.056;2023-10-09T00:58:05;8.15;;;3.47;;
62687;SDS011;48752;51.056;17.056;2023-10-09T01:00:38;4.65;;;2.53;;
62687;SDS011;48752;51.056;17.056;2023-10-09T01:03:15;9.55;;;3.75;;
62687;SDS011;48752;51.056;17.056;2023-10-09T01:05:45;7.20;;;3.67;;
62687;SDS011;48752;51.056;17.056;2023-10-09T01:08:23;5.65;;;3.35;;
62687;SDS011;48752;51.056;17.056;2023-10-09T01:11:20;7.43;;;4.53;;
62687;SDS011;48752;51.056;17.056;2023-10-09T01:13:50;4.40;;;2.75;;
62687;SDS011;48752;51.056;17.056;2023-10-09T01:16:24;9.23;;;3.42;;
62687;SDS011;48752;51.056;17.056;2023-10-09T01:21:44;4.97;;;2.67;;
62687;SDS011;48752;51.056;17.056;2023-10-09T01:24:10;5.93;;;2.88;;
62687;SDS011;48752;51.056;17.056;2023-10-09T01:26:37;5.72;;;3.00;;
62687;SDS011;48752;51.056;17.056;2023-10-09T01:29:13;7.72;;;3.25;;
62687;SDS011;48752;51.056;17.056;2023-10-09T01:32:01;4.30;;;2.55;;
62687;SDS011;48752;51.056;17.056;2023-10-09T01:34:30;6.43;;;3.63;;
62687;SDS011;48752;51.056;17.056;2023-10-09T01:37:10;7.88;;;3.55;;
62687;SDS011;48752;51.056;17.056;2023-10-09T01:39:56;7.35;;;4.45;;
62687;SDS011;48752;51.056;17.056;2023-10-09T01:45:00;9.70;;;3.88;;
62687;SDS011;48752;51.056;17.056;2023-10-09T01:47:53;5.95;;;3.40;;
62687;SDS011;48752;51.056;17.056;2023-10-09T01:50:31;8.40;;;3.13;;
62687;SDS011;48752;51.056;17.056;2023-10-09T01:53:01;5.68;;;3.03;;
62687;SDS011;48752;51.056;17.056;2023-10-09T01:55:30;7.25;;;3.78;;
62687;SDS011;48752;51.056;17.056;2023-10-09T01:58:11;5.38;;;3.00;;
62687;SDS011;48752;51.056;17.056;2023-10-09T02:00:47;10.07;;;3.60;;
62687;SDS011;48752;51.056;17.056;2023-10-09T02:03:33;6.85;;;3.30;;
62687;SDS011;48752;51.056;17.056;2023-10-09T02:06:03;10.50;;;3.70;;
62687;SDS011;48752;51.056;17.056;2023-10-09T02:08:32;6.03;;;3.00;;
62687;SDS011;48752;51.056;17.056;2023-10-09T02:11:01;9.25;;;4.50;;
62687;SDS011;48752;51.056;17.056;2023-10-09T02:13:29;4.75;;;2.90;;
62687;SDS011;48752;51.056;17.056;2023-10-09T02:15:57;8.60;;;3.33;;
62687;SDS011;48752;51.056;17.056;2023-10-09T02:18:54;7.03;;;3.63;;
62687;SDS011;48752;51.056;17.056;2023-10-09T02:21:25;5.60;;;3.05;;
62687;SDS011;48752;51.056;17.056;2023-10-09T02:24:20;6.07;;;2.92;;
62687;SDS011;48752;51.056;17.056;2023-10-09T02:27:11;6.90;;;2.70;;
62687;SDS011;48752;51.056;17.056;2023-10-09T02:29:49;8.43;;;3.17;;
62687;SDS011;48752;51.056;17.056;2023-10-09T02:32:15;7.07;;;3.13;;
62687;SDS011;48752;51.056;17.056;2023-10-09T02:34:50;7.13;;;2.75;;
62687;SDS011;48752;51.056;17.056;2023-10-09T02:37:20;5.03;;;2.97;;
62687;SDS011;48752;51.056;17.056;2023-10-09T02:39:51;7.63;;;2.80;;
62687;SDS011;48752;51.056;17.056;2023-10-09T02:42:18;5.45;;;2.42;;
62687;SDS011;48752;51.056;17.056;2023-10-09T02:44:52;4.13;;;2.20;;
62687;SDS011;48752;51.056;17.056;2023-10-09T02:47:19;7.38;;;2.92;;
62687;SDS011;48752;51.056;17.056;2023-10-09T02:49:56;6.43;;;2.72;;
62687;SDS011;48752;51.056;17.056;2023-10-09T02:52:31;4.55;;;2.53;;
62687;SDS011;48752;51.056;17.056;2023-10-09T02:55:06;5.15;;;2.70;;
62687;SDS011;48752;51.056;17.056;2023-10-09T02:57:50;5.70;;;2.53;;
62687;SDS011;48752;51.056;17.056;2023-10-09T03:00:31;5.25;;;2.45;;
62687;SDS011;48752;51.056;17.056;2023-10-09T03:03:02;7.00;;;2.45;;
62687;SDS011;48752;51.056;17.056;2023-10-09T03:05:32;8.68;;;3.05;;
62687;SDS011;48752;51.056;17.056;2023-10-09T03:08:07;5.85;;;2.38;;
62687;SDS011;48752;51.056;17.056;2023-10-09T03:10:34;6.47;;;2.90;;
62687;SDS011;48752;51.056;17.056;2023-10-09T03:13:02;6.70;;;2.35;;
62687;SDS011;48752;51.056;17.056;2023-10-09T03:15:31;4.13;;;2.13;;
62687;SDS011;48752;51.056;17.056;2023-10-09T03:18:02;4.70;;;2.38;;
62687;SDS011;48752;51.056;17.056;2023-10-09T03:20:30;4.32;;;2.50;;
62687;SDS011;48752;51.056;17.056;2023-10-09T03:22:57;5.68;;;2.50;;
62687;SDS011;48752;51.056;17.056;2023-10-09T03:25:23;5.60;;;2.90;;
62687;SDS011;48752;51.056;17.056;2023-10-09T03:27:51;5.93;;;2.63;;
62687;SDS011;48752;51.056;17.056;2023-10-09T03:30:19;8.02;;;2.72;;
62687;SDS011;48752;51.056;17.056;2023-10-09T03:32:49;5.43;;;2.40;;
62687;SDS011;48752;51.056;17.056;2023-10-09T03:35:18;4.22;;;1.98;;
62687;SDS011;48752;51.056;17.056;2023-10-09T03:38:00;5.15;;;2.10;;
62687;SDS011;48752;51.056;17.056;2023-10-09T03:40:28;5.95;;;2.00;;
62687;SDS011;48752;51.056;17.056;2023-10-09T03:42:58;5.40;;;2.08;;
62687;SDS011;48752;51.056;17.056;2023-10-09T03:45:27;5.00;;;2.17;;
62687;SDS011;48752;51.056;17.056;2023-10-09T03:48:01;4.97;;;2.08;;
62687;SDS011;48752;51.056;17.056;2023-10-09T03:50:40;5.25;;;2.10;;
62687;SDS011;48752;51.056;17.056;2023-10-09T03:53:08;3.58;;;2.28;;
62687;SDS011;48752;51.056;17.056;2023-10-09T03:55:39;6.10;;;2.08;;
62687;SDS011;48752;51.056;17.056;2023-10-09T03:58:07;3.85;;;2.15;;
62687;SDS011;48752;51.056;17.056;2023-10-09T04:00:36;5.33;;;1.93;;
62687;SDS011;48752;51.056;17.056;2023-10-09T04:03:10;5.78;;;2.33;;
62687;SDS011;48752;51.056;17.056;2023-10-09T04:05:37;3.85;;;2.25;;
62687;SDS011;48752;51.056;17.056;2023-10-09T04:08:07;5.13;;;2.53;;
62687;SDS011;48752;51.056;17.056;2023-10-09T04:10:42;4.82;;;2.03;;
62687;SDS011;48752;51.056;17.056;2023-10-09T04:13:10;4.53;;;1.80;;
62687;SDS011;48752;51.056;17.056;2023-10-09T04:15:58;4.57;;;1.38;;
62687;SDS011;48752;51.056;17.056;2023-10-09T04:18:35;4.07;;;1.77;;
62687;SDS011;48752;51.056;17.056;2023-10-09T04:21:05;4.38;;;2.38;;
62687;SDS011;48752;51.056;17.056;2023-10-09T04:23:55;3.40;;;1.45;;
62687;SDS011;48752;51.056;17.056;2023-10-09T04:26:42;8.88;;;2.20;;
62687;SDS011;48752;51.056;17.056;2023-10-09T04:29:14;3.63;;;1.95;;
62687;SDS011;48752;51.056;17.056;2023-10-09T04:32:05;3.33;;;1.35;;
62687;SDS011;48752;51.056;17.056;2023-10-09T04:34:51;6.35;;;1.98;;
62687;SDS011;48752;51.056;17.056;2023-10-09T04:37:43;3.80;;;1.77;;
62687;SDS011;48752;51.056;17.056;2023-10-09T04:40:18;4.03;;;1.90;;
62687;SDS011;48752;51.056;17.056;2023-10-09T04:43:03;3.88;;;1.80;;
62687;SDS011;48752;51.056;17.056;2023-10-09T04:45:38;4.95;;;1.75;;
62687;SDS011;48752;51.056;17.056;2023-10-09T04:48:26;3.63;;;1.60;;
62687;SDS011;48752;51.056;17.056;2023-10-09T04:50:59;2.95;;;1.85;;
62687;SDS011;48752;51.056;17.056;2023-10-09T04:53:43;3.60;;;1.90;;
62687;SDS011;48752;51.056;17.056;2023-10-09T04:56:15;5.05;;;1.48;;
62687;SDS011;48752;51.056;17.056;2023-10-09T04:58:42;4.35;;;2.03;;
62687;SDS011;48752;51.056;17.056;2023-10-09T05:01:09;2.35;;;1.50;;
62687;SDS011;48752;51.056;17.056;2023-10-09T05:03:43;4.13;;;1.80;;
62687;SDS011;48752;51.056;17.056;2023-10-09T05:06:09;2.88;;;1.50;;
62687;SDS011;48752;51.056;17.056;2023-10-09T05:09:09;4.43;;;1.58;;
62687;SDS011;48752;51.056;17.056;2023-10-09T05:11:39;5.78;;;1.85;;
62687;SDS011;48752;51.056;17.056;2023-10-09T05:14:25;3.47;;;1.70;;
62687;SDS011;48752;51.056;17.056;2023-10-09T05:17:05;8.25;;;1.85;;
62687;SDS011;48752;51.056;17.056;2023-10-09T05:19:34;5.43;;;1.83;;
62687;SDS011;48752;51.056;17.056;2023-10-09T05:22:20;4.18;;;2.30;;
62687;SDS011;48752;51.056;17.056;2023-10-09T05:25:16;6.45;;;2.65;;
62687;SDS011;48752;51.056;17.056;2023-10-09T05:28:03;5.30;;;1.85;;
62687;SDS011;48752;51.056;17.056;2023-10-09T05:30:49;4.60;;;1.90;;
62687;SDS011;48752;51.056;17.056;2023-10-09T05:35:54;3.55;;;1.73;;
62687;SDS011;48752;51.056;17.056;2023-10-09T05:38:39;2.42;;;1.75;;
62687;SDS011;48752;51.056;17.056;2023-10-09T05:41:12;3.67;;;2.60;;
62687;SDS011;48752;51.056;17.056;2023-10-09T05:43:57;2.85;;;1.85;;
62687;SDS011;48752;51.056;17.056;2023-10-09T05:46:49;5.25;;;1.90;;
62687;SDS011;48752;51.056;17.056;2023-10-09T05:49:34;4.40;;;1.63;;
62687;SDS011;48752;51.056;17.056;2023-10-09T05:52:21;4.22;;;1.80;;
62687;SDS011;48752;51.056;17.056;2023-10-09T05:55:06;4.20;;;1.67;;
62687;SDS011;48752;51.056;17.056;2023-10-09T05:57:55;2.58;;;1.80;;
62687;SDS011;48752;51.056;17.056;2023-10-09T06:00:41;5.43;;;2.25;;
62687;SDS011;48752;51.056;17.056;2023-10-09T06:03:25;6.13;;;2.10;;
62687;SDS011;48752;51.056;17.056;2023-10-09T06:05:53;8.02;;;2.08;;
62687;SDS011;48752;51.056;17.056;2023-10-09T06:11:15;3.40;;;2.08;;
62687;SDS011;48752;51.056;17.056;2023-10-09T06:14:00;2.78;;;2.08;;
62687;SDS011;48752;51.056;17.056;2023-10-09T06:16:54;3.47;;;2.15;;
62687;SDS011;48752;51.056;17.056;2023-10-09T06:19:22;5.57;;;1.90;;
62687;SDS011;48752;51.056;17.056;2023-10-09T06:22:20;5.68;;;2.28;;
62687;SDS011;48752;51.056;17.056;2023-10-09T06:25:17;4.53;;;2.47;;
62687;SDS011;48752;51.056;17.056;2023-10-09T06:27:52;3.08;;;2.50;;
62687;SDS011;48752;51.056;17.056;2023-10-09T06:30:24;3.35;;;2.15;;
62687;SDS011;48752;51.056;17.056;2023-10-09T06:32:51;6.85;;;2.65;;
62687;SDS011;48752;51.056;17.056;2023-10-09T06:37:59;6.47;;;2.25;;
62687;SDS011;48752;51.056;17.056;2023-10-09T06:40:33;5.93;;;2.22;;
62687;SDS011;48752;51.056;17.056;2023-10-09T06:43:23;7.18;;;2.75;;
62687;SDS011;48752;51.056;17.056;2023-10-09T06:45:52;6.03;;;2.83;;
62687;SDS011;48752;51.056;17.056;2023-10-09T06:48:37;6.03;;;3.67;;
62687;SDS011;48752;51.056;17.056;2023-10-09T06:51:10;7.75;;;3.28;;
62687;SDS011;48752;51.056;17.056;2023-10-09T06:53:49;8.25;;;3.67;;
62687;SDS011;48752;51.056;17.056;2023-10-09T06:56:23;7.95;;;3.45;;
62687;SDS011;48752;51.056;17.056;2023-10-09T06:59:04;4.70;;;2.50;;
62687;SDS011;48752;51.056;17.056;2023-10-09T07:01:49;5.45;;;2.75;;
62687;SDS011;48752;51.056;17.056;2023-10-09T07:05:07;8.73;;;3.33;;
62687;SDS011;48752;51.056;17.056;2023-10-09T07:07:36;10.77;;;3.83;;
62687;SDS011;48752;51.056;17.056;2023-10-09T07:10:15;5.88;;;3.30;;
62687;SDS011;48752;51.056;17.056;2023-10-09T07:12:59;4.50;;;2.28;;
62687;SDS011;48752;51.056;17.056;2023-10-09T07:15:28;7.93;;;3.30;;
62687;SDS011;48752;51.056;17.056;2023-10-09T07:18:12;6.40;;;2.60;;
62687;SDS011;48752;51.056;17.056;2023-10-09T07:20:49;7.32;;;3.65;;
62687;SDS011;48752;51.056;17.056;2023-10-09T07:23:27;5.45;;;3.25;;
62687;SDS011;48752;51.056;17.056;2023-10-09T07:26:01;8.40;;;3.10;;
62687;SDS011;48752;51.056;17.056;2023-10-09T07:28:43;6.88;;;3.50;;
62687;SDS011;48752;51.056;17.056;2023-10-09T07:31:17;6.15;;;3.70;;
62687;SDS011;48752;51.056;17.056;2023-10-09T07:33:49;5.95;;;3.53;;
62687;SDS011;48752;51.056;17.056;2023-10-09T07:36:23;7.13;;;3.22;;
62687;SDS011;48752;51.056;17.056;2023-10-09T07:39:04;6.15;;;3.40;;
62687;SDS011;48752;51.056;17.056;2023-10-09T07:41:43;12.10;;;3.83;;
62687;SDS011;48752;51.056;17.056;2023-10-09T07:44:27;6.43;;;3.17;;
62687;SDS011;48752;51.056;17.056;2023-10-09T07:47:03;6.70;;;3.15;;
62687;SDS011;48752;51.056;17.056;2023-10-09T07:49:47;4.90;;;2.72;;
62687;SDS011;48752;51.056;17.056;2023-10-09T07:52:24;6.70;;;3.30;;
62687;SDS011;48752;51.056;17.056;2023-10-09T07:54:52;8.50;;;2.95;;
62687;SDS011;48752;51.056;17.056;2023-10-09T07:57:29;7.13;;;3.78;;
62687;SDS011;48752;51.056;17.056;2023-10-09T08:00:06;9.93;;;5.00;;
62687;SDS011;48752;51.056;17.056;2023-10-09T08:03:00;7.80;;;3.60;;
62687;SDS011;48752;51.056;17.056;2023-10-09T08:05:25;9.32;;;3.38;;
62687;SDS011;48752;51.056;17.056;2023-10-09T08:07:59;6.63;;;3.17;;
62687;SDS011;48752;51.056;17.056;2023-10-09T08:10:50;7.70;;;3.75;;
62687;SDS011;48752;51.056;17.056;2023-10-09T08:13:34;7.38;;;2.90;;
62687;SDS011;48752;51.056;17.056;2023-10-09T08:16:38;7.10;;;3.47;;
62687;SDS011;48752;51.056;17.056;2023-10-09T08:19:07;5.70;;;2.85;;
62687;SDS011;48752;51.056;17.056;2023-10-09T08:21:59;5.50;;;3.25;;
62687;SDS011;48752;51.056;17.056;2023-10-09T08:24:46;6.63;;;2.78;;
62687;SDS011;48752;51.056;17.056;2023-10-09T08:27:26;6.18;;;2.80;;
62687;SDS011;48752;51.056;17.056;2023-10-09T08:29:54;5.63;;;3.03;;
62687;SDS011;48752;51.056;17.056;2023-10-09T08:32:40;6.78;;;2.83;;
62687;SDS011;48752;51.056;17.056;2023-10-09T08:35:09;4.60;;;2.20;;
62687;SDS011;48752;51.056;17.056;2023-10-09T08:37:53;7.65;;;3.42;;
62687;SDS011;48752;51.056;17.056;2023-10-09T08:40:32;5.25;;;2.22;;
62687;SDS011;48752;51.056;17.056;2023-10-09T08:43:15;4.65;;;1.90;;
62687;SDS011;48752;51.056;17.056;2023-10-09T08:45:53;5.35;;;1.90;;
62687;SDS011;48752;51.056;17.056;2023-10-09T08:48:27;4.25;;;2.22;;
62687;SDS011;48752;51.056;17.056;2023-10-09T08:50:56;2.67;;;1.63;;
62687;SDS011;48752;51.056;17.056;2023-10-09T08:53:22;4.05;;;2.00;;
62687;SDS011;48752;51.056;17.056;2023-10-09T08:55:50;2.83;;;1.65;;
62687;SDS011;48752;51.056;17.056;2023-10-09T08:58:32;8.15;;;2.00;;
62687;SDS011;48752;51.056;17.056;2023-10-09T09:01:03;2.83;;;1.80;;
62687;SDS011;48752;51.056;17.056;2023-10-09T09:03:39;3.08;;;1.85;;
62687;SDS011;48752;51.056;17.056;2023-10-09T09:06:08;1.58;;;1.33;;
62687;SDS011;48752;51.056;17.056;2023-10-09T09:08:35;2.10;;;1.40;;
62687;SDS011;48752;51.056;17.056;2023-10-09T09:11:03;1.52;;;1.05;;
62687;SDS011;48752;51.056;17.056;2023-10-09T09:13:40;2.10;;;1.60;;
62687;SDS011;48752;51.056;17.056;2023-10-09T09:16:13;4.85;;;1.75;;
62687;SDS011;48752;51.056;17.056;2023-10-09T09:19:01;3.40;;;1.80;;
62687;SDS011;48752;51.056;17.056;2023-10-09T09:21:50;4.47;;;2.13;;
62687;SDS011;48752;51.056;17.056;2023-10-09T09:24:19;2.33;;;1.60;;
62687;SDS011;48752;51.056;17.056;2023-10-09T09:29:43;3.83;;;1.50;;
62687;SDS011;48752;51.056;17.056;2023-10-09T09:32:19;3.63;;;1.65;;
62687;SDS011;48752;51.056;17.056;2023-10-09T09:35:12;4.35;;;1.50;;
62687;SDS011;48752;51.056;17.056;2023-10-09T09:37:51;2.85;;;1.75;;
62687;SDS011;48752;51.056;17.056;2023-10-09T09:40:20;2.83;;;1.55;;
62687;SDS011;48752;51.056;17.056;2023-10-09T09:42:56;2.75;;;1.45;;
62687;SDS011;48752;51.056;17.056;2023-10-09T09:45:43;1.50;;;1.40;;
62687;SDS011;48752;51.056;17.056;2023-10-09T09:48:15;2.80;;;1.20;;
62687;SDS011;48752;51.056;17.056;2023-10-09T09:50:43;2.03;;;1.45;;
62687;SDS011;48752;51.056;17.056;2023-10-09T09:53:11;2.90;;;1.23;;
62687;SDS011;48752;51.056;17.056;2023-10-09T09:55:51;3.75;;;1.17;;
62687;SDS011;48752;51.056;17.056;2023-10-09T09:58:24;5.88;;;1.45;;
62687;SDS011;48752;51.056;17.056;2023-10-09T10:01:09;7.40;;;2.10;;
62687;SDS011;48752;51.056;17.056;2023-10-09T10:04:05;3.22;;;1.80;;
62687;SDS011;48752;51.056;17.056;2023-10-09T10:06:45;3.28;;;1.92;;
62687;SDS011;48752;51.056;17.056;2023-10-09T10:09:40;4.05;;;2.05;;
62687;SDS011;48752;51.056;17.056;2023-10-09T10:12:10;3.03;;;2.30;;
62687;SDS011;48752;51.056;17.056;2023-10-09T10:15:10;2.53;;;1.80;;
62687;SDS011;48752;51.056;17.056;2023-10-09T10:20:29;5.68;;;1.67;;
62687;SDS011;48752;51.056;17.056;2023-10-09T10:23:25;3.65;;;1.85;;
62687;SDS011;48752;51.056;17.056;2023-10-09T10:26:16;4.63;;;1.83;;
62687;SDS011;48752;51.056;17.056;2023-10-09T10:29:13;3.08;;;1.83;;
62687;SDS011;48752;51.056;17.056;2023-10-09T10:32:02;5.38;;;2.20;;
62687;SDS011;48752;51.056;17.056;2023-10-09T10:34:52;3.40;;;1.92;;
62687;SDS011;48752;51.056;17.056;2023-10-09T10:37:44;3.17;;;2.10;;
62687;SDS011;48752;51.056;17.056;2023-10-09T10:40:30;2.78;;;1.77;;
62687;SDS011;48752;51.056;17.056;2023-10-09T10:43:25;5.75;;;2.10;;
62687;SDS011;48752;51.056;17.056;2023-10-09T10:46:01;3.38;;;1.83;;
62687;SDS011;48752;51.056;17.056;2023-10-09T10:48:34;1.55;;;1.15;;
62687;SDS011;48752;51.056;17.056;2023-10-09T10:51:15;3.92;;;1.60;;
62687;SDS011;48752;51.056;17.056;2023-10-09T10:53:53;1.52;;;1.20;;
62687;SDS011;48752;51.056;17.056;2023-10-09T10:56:23;2.83;;;1.20;;
62687;SDS011;48752;51.056;17.056;2023-10-09T10:59:00;2.95;;;1.52;;
62687;SDS011;48752;51.056;17.056;2023-10-09T11:01:32;2.88;;;1.40;;
62687;SDS011;48752;51.056;17.056;2023-10-09T11:04:19;2.58;;;1.70;;
62687;SDS011;48752;51.056;17.056;2023-10-09T11:07:04;2.60;;;1.35;;
62687;SDS011;48752;51.056;17.056;2023-10-09T11:09:50;2.58;;;1.77;;
62687;SDS011;48752;51.056;17.056;2023-10-09T11:15:11;3.88;;;1.27;;
62687;SDS011;48752;51.056;17.056;2023-10-09T11:18:13;3.20;;;1.47;;
62687;SDS011;48752;51.056;17.056;2023-10-09T11:21:03;1.80;;;1.23;;
62687;SDS011;48752;51.056;17.056;2023-10-09T11:23:28;3.03;;;1.38;;
62687;SDS011;48752;51.056;17.056;2023-10-09T11:26:03;2.55;;;1.38;;
62687;SDS011;48752;51.056;17.056;2023-10-09T11:29:08;4.10;;;1.42;;
62687;SDS011;48752;51.056;17.056;2023-10-09T11:32:05;2.75;;;1.33;;
62687;SDS011;48752;51.056;17.056;2023-10-09T11:35:10;2.72;;;1.77;;
62687;SDS011;48752;51.056;17.056;2023-10-09T11:37:41;4.05;;;2.28;;
62687;SDS011;48752;51.056;17.056;2023-10-09T11:43:21;2.55;;;1.40;;
62687;SDS011;48752;51.056;17.056;2023-10-09T11:46:10;2.65;;;1.50;;
62687;SDS011;48752;51.056;17.056;2023-10-09T11:49:06;3.67;;;1.83;;
62687;SDS011;48752;51.056;17.056;2023-10-09T11:54:35;3.08;;;1.60;;
62687;SDS011;48752;51.056;17.056;2023-10-09T11:57:02;1.88;;;1.48;;
62687;SDS011;48752;51.056;17.056;2023-10-09T11:59:32;2.55;;;1.67;;
62687;SDS011;48752;51.056;17.056;2023-10-09T12:02:07;2.70;;;1.40;;
62687;SDS011;48752;51.056;17.056;2023-10-09T12:04:54;1.63;;;1.40;;
62687;SDS011;48752;51.056;17.056;2023-10-09T12:07:24;5.60;;;1.55;;
62687;SDS011;48752;51.056;17.056;2023-10-09T12:09:52;2.35;;;1.40;;
62687;SDS011;48752;51.056;17.056;2023-10-09T12:12:21;2.85;;;1.63;;
62687;SDS011;48752;51.056;17.056;2023-10-09T12:15:08;3.60;;;1.92;;
62687;SDS011;48752;51.056;17.056;2023-10-09T12:17:55;3.80;;;1.73;;
62687;SDS011;48752;51.056;17.056;2023-10-09T12:20:21;3.25;;;1.88;;
62687;SDS011;48752;51.056;17.056;2023-10-09T12:23:21;4.40;;;2.35;;
62687;SDS011;48752;51.056;17.056;2023-10-09T12:25:49;3.35;;;1.63;;
62687;SDS011;48752;51.056;17.056;2023-10-09T12:28:16;2.53;;;1.73;;
62687;SDS011;48752;51.056;17.056;2023-10-09T12:30:46;3.10;;;2.13;;
62687;SDS011;48752;51.056;17.056;2023-10-09T12:33:33;2.97;;;2.47;;
62687;SDS011;48752;51.056;17.056;2023-10-09T12:36:05;2.33;;;1.73;;
62687;SDS011;48752;51.056;17.056;2023-10-09T12:38:57;3.83;;;1.92;;
62687;SDS011;48752;51.056;17.056;2023-10-09T12:41:24;2.78;;;1.98;;
62687;SDS011;48752;51.056;17.056;2023-10-09T12:43:54;2.65;;;2.17;;
62687;SDS011;48752;51.056;17.056;2023-10-09T12:46:20;3.90;;;2.70;;
62687;SDS011;48752;51.056;17.056;2023-10-09T12:48:50;3.88;;;2.50;;
62687;SDS011;48752;51.056;17.056;2023-10-09T12:51:21;3.35;;;2.42;;
62687;SDS011;48752;51.056;17.056;2023-10-09T12:54:08;2.22;;;1.75;;
62687;SDS011;48752;51.056;17.056;2023-10-09T12:56:35;5.22;;;3.00;;
62687;SDS011;48752;51.056;17.056;2023-10-09T12:59:05;3.75;;;3.00;;
62687;SDS011;48752;51.056;17.056;2023-10-09T13:01:33;4.90;;;2.20;;
62687;SDS011;48752;51.056;17.056;2023-10-09T13:04:12;8.45;;;2.97;;
62687;SDS011;48752;51.056;17.056;2023-10-09T13:06:41;3.78;;;2.90;;
62687;SDS011;48752;51.056;17.056;2023-10-09T13:09:12;3.42;;;2.95;;
62687;SDS011;48752;51.056;17.056;2023-10-09T13:11:39;5.93;;;4.10;;
62687;SDS011;48752;51.056;17.056;2023-10-09T13:14:06;4.10;;;3.15;;
62687;SDS011;48752;51.056;17.056;2023-10-09T13:16:49;4.88;;;3.33;;
62687;SDS011;48752;51.056;17.056;2023-10-09T13:19:22;3.13;;;2.45;;
62687;SDS011;48752;51.056;17.056;2023-10-09T13:21:49;3.78;;;2.88;;
62687;SDS011;48752;51.056;17.056;2023-10-09T13:24:16;4.55;;;2.83;;
62687;SDS011;48752;51.056;17.056;2023-10-09T13:26:49;5.20;;;2.92;;
62687;SDS011;48752;51.056;17.056;2023-10-09T13:29:26;4.53;;;2.58;;
62687;SDS011;48752;51.056;17.056;2023-10-09T13:32:07;3.55;;;2.47;;
62687;SDS011;48752;51.056;17.056;2023-10-09T13:34:40;3.33;;;2.97;;
62687;SDS011;48752;51.056;17.056;2023-10-09T13:37:12;5.85;;;3.35;;
62687;SDS011;48752;51.056;17.056;2023-10-09T13:39:47;5.15;;;3.60;;
62687;SDS011;48752;51.056;17.056;2023-10-09T13:42:24;4.50;;;2.97;;
62687;SDS011;48752;51.056;17.056;2023-10-09T13:44:51;4.40;;;2.78;;
62687;SDS011;48752;51.056;17.056;2023-10-09T13:47:42;5.32;;;2.83;;
62687;SDS011;48752;51.056;17.056;2023-10-09T13:50:15;6.03;;;2.78;;
62687;SDS011;48752;51.056;17.056;2023-10-09T13:52:41;6.80;;;3.13;;
62687;SDS011;48752;51.056;17.056;2023-10-09T13:55:08;3.92;;;3.08;;
62687;SDS011;48752;51.056;17.056;2023-10-09T13:57:44;4.57;;;2.95;;
62687;SDS011;48752;51.056;17.056;2023-10-09T14:00:12;4.78;;;3.15;;
62687;SDS011;48752;51.056;17.056;2023-10-09T14:03:00;6.88;;;4.18;;
62687;SDS011;48752;51.056;17.056;2023-10-09T14:05:31;5.43;;;3.60;;
62687;SDS011;48752;51.056;17.056;2023-10-09T14:07:58;5.85;;;3.97;;
62687;SDS011;48752;51.056;17.056;2023-10-09T14:10:32;6.45;;;3.60;;
62687;SDS011;48752;51.056;17.056;2023-10-09T14:12:59;7.20;;;4.10;;
62687;SDS011;48752;51.056;17.056;2023-10-09T14:15:26;4.80;;;3.28;;
62687;SDS011;48752;51.056;17.056;2023-10-09T14:17:56;5.57;;;2.90;;
62687;SDS011;48752;51.056;17.056;2023-10-09T14:20:23;5.07;;;3.72;;
62687;SDS011;48752;51.056;17.056;2023-10-09T14:23:00;5.10;;;3.92;;
62687;SDS011;48752;51.056;17.056;2023-10-09T14:25:36;6.93;;;3.15;;
62687;SDS011;48752;51.056;17.056;2023-10-09T14:28:10;14.18;;;5.22;;
62687;SDS011;48752;51.056;17.056;2023-10-09T14:30:37;4.72;;;3.20;;
62687;SDS011;48752;51.056;17.056;2023-10-09T14:33:15;4.03;;;3.38;;
62687;SDS011;48752;51.056;17.056;2023-10-09T14:35:48;7.78;;;4.95;;
62687;SDS011;48752;51.056;17.056;2023-10-09T14:38:18;7.53;;;3.42;;
62687;SDS011;48752;51.056;17.056;2023-10-09T14:40:51;8.10;;;4.25;;
62687;SDS011;48752;51.056;17.056;2023-10-09T14:43:23;6.90;;;3.70;;
62687;SDS011;48752;51.056;17.056;2023-10-09T14:45:54;5.75;;;3.67;;
62687;SDS011;48752;51.056;17.056;2023-10-09T14:48:20;4.55;;;4.05;;
62687;SDS011;48752;51.056;17.056;2023-10-09T14:50:54;17.88;;;6.03;;
62687;SDS011;48752;51.056;17.056;2023-10-09T14:53:28;5.75;;;4.43;;
62687;SDS011;48752;51.056;17.056;2023-10-09T14:55:54;10.00;;;4.72;;
62687;SDS011;48752;51.056;17.056;2023-10-09T14:58:23;5.95;;;3.00;;
62687;SDS011;48752;51.056;17.056;2023-10-09T15:00:51;6.90;;;4.28;;
62687;SDS011;48752;51.056;17.056;2023-10-09T15:03:18;7.88;;;4.80;;
62687;SDS011;48752;51.056;17.056;2023-10-09T15:05:46;8.18;;;5.22;;
62687;SDS011;48752;51.056;17.056;2023-10-09T15:08:11;9.05;;;4.57;;
62687;SDS011;48752;51.056;17.056;2023-10-09T15:10:44;8.30;;;4.93;;
62687;SDS011;48752;51.056;17.056;2023-10-09T15:13:15;9.85;;;6.38;;
62687;SDS011;48752;51.056;17.056;2023-10-09T15:15:45;8.90;;;6.38;;
62687;SDS011;48752;51.056;17.056;2023-10-09T15:18:11;11.02;;;7.63;;
62687;SDS011;48752;51.056;17.056;2023-10-09T15:20:39;12.20;;;6.57;;
62687;SDS011;48752;51.056;17.056;2023-10-09T15:23:05;12.55;;;7.57;;
62687;SDS011;48752;51.056;17.056;2023-10-09T15:25:32;9.35;;;6.13;;
62687;SDS011;48752;51.056;17.056;2023-10-09T15:28:01;6.93;;;4.40;;
62687;SDS011;48752;51.056;17.056;2023-10-09T15:30:28;6.60;;;4.05;;
62687;SDS011;48752;51.056;17.056;2023-10-09T15:32:59;8.35;;;4.70;;
62687;SDS011;48752;51.056;17.056;2023-10-09T15:35:29;6.50;;;3.40;;
62687;SDS011;48752;51.056;17.056;2023-10-09T15:38:00;9.18;;;5.68;;
62687;SDS011;48752;51.056;17.056;2023-10-09T15:40:32;54.75;;;18.88;;
62687;SDS011;48752;51.056;17.056;2023-10-09T15:43:00;42.88;;;14.85;;
62687;SDS011;48752;51.056;17.056;2023-10-09T15:45:26;53.90;;;17.27;;
62687;SDS011;48752;51.056;17.056;2023-10-09T15:47:55;33.33;;;12.65;;
62687;SDS011;48752;51.056;17.056;2023-10-09T15:50:21;35.63;;;14.95;;
62687;SDS011;48752;51.056;17.056;2023-10-09T15:52:52;23.42;;;9.75;;
62687;SDS011;48752;51.056;17.056;2023-10-09T15:55:26;8.80;;;5.30;;